createdAt,value
2023-03-18T00:00:21.013Z,26.05
2023-03-18T00:02:48.559Z,26.48
2023-03-18T00:05:15.694Z,25.80
2023-03-18T00:07:43.097Z,24.48
2023-03-18T00:10:12.063Z,27.13
2023-03-18T00:12:41.545Z,29.02
2023-03-18T00:15:12.512Z,26.77
2023-03-18T00:17:41.281Z,26.67
2023-03-18T00:20:10.033Z,28.40
2023-03-18T00:22:38.038Z,28.08
2023-03-18T00:25:07.818Z,27.67
2023-03-18T00:27:40.004Z,27.88
2023-03-18T00:30:08.068Z,27.27
2023-03-18T00:32:37.304Z,29.08
2023-03-18T00:35:04.964Z,29.85
2023-03-18T00:37:33.437Z,28.67
2023-03-18T00:40:06.524Z,30.20
2023-03-18T00:42:40.160Z,28.92
2023-03-18T00:45:11.025Z,28.23
2023-03-18T00:47:38.678Z,28.60
2023-03-18T00:50:08.577Z,28.80
2023-03-18T00:52:36.422Z,31.50
2023-03-18T00:55:05.043Z,31.40
2023-03-18T00:57:32.223Z,32.92
2023-03-18T00:59:59.662Z,30.65
2023-03-18T01:02:30.716Z,32.92
2023-03-18T01:04:57.975Z,34.97
2023-03-18T01:07:25.611Z,34.50
2023-03-18T01:09:55.369Z,36.42
2023-03-18T01:12:22.847Z,35.25
2023-03-18T01:14:49.877Z,36.33
2023-03-18T01:17:16.912Z,37.88
2023-03-18T01:19:44.550Z,36.58
2023-03-18T01:22:11.521Z,39.08
2023-03-18T01:24:45.131Z,38.88
2023-03-18T01:27:12.968Z,38.60
2023-03-18T01:29:42.203Z,37.95
2023-03-18T01:32:16.144Z,36.50
2023-03-18T01:34:44.242Z,36.83
2023-03-18T01:37:11.688Z,37.50
2023-03-18T01:39:41.242Z,39.13
2023-03-18T01:42:18.089Z,37.40
2023-03-18T01:44:46.549Z,34.85
2023-03-18T01:47:16.636Z,32.50
2023-03-18T01:49:52.392Z,31.83
2023-03-18T01:52:27.131Z,28.80
2023-03-18T01:54:59.657Z,25.98
2023-03-18T01:57:30.167Z,26.52
2023-03-18T02:02:26.257Z,26.55
2023-03-18T02:04:56.551Z,25.73
2023-03-18T02:07:27.970Z,27.02
2023-03-18T02:10:00.025Z,25.63
2023-03-18T02:12:36.919Z,26.27
2023-03-18T02:15:12.082Z,25.52
2023-03-18T02:17:43.211Z,25.98
2023-03-18T02:20:27.857Z,26.15
2023-03-18T02:23:07.045Z,22.88
2023-03-18T02:25:39.253Z,25.15
2023-03-18T02:28:10.700Z,23.65
2023-03-18T02:30:41.864Z,25.15
2023-03-18T02:33:11.913Z,25.02
2023-03-18T02:35:40.162Z,24.15
2023-03-18T02:38:07.193Z,24.27
2023-03-18T02:40:37.703Z,24.60
2023-03-18T02:43:27.521Z,24.75
2023-03-18T02:46:31.523Z,23.95
2023-03-18T02:49:01.834Z,26.02
2023-03-18T02:51:30.589Z,26.45
2023-03-18T02:54:04.738Z,29.38
2023-03-18T02:56:31.997Z,29.67
2023-03-18T02:59:00.562Z,29.42
2023-03-18T03:03:57.214Z,30.10
2023-03-18T03:06:25.483Z,31.17
2023-03-18T03:08:52.436Z,32.83
2023-03-18T03:11:22.000Z,30.58
2023-03-18T03:13:51.258Z,32.10
2023-03-18T03:16:20.133Z,32.60
2023-03-18T03:18:47.587Z,32.95
2023-03-18T03:21:15.418Z,31.15
2023-03-18T03:23:43.987Z,31.60
2023-03-18T03:26:11.754Z,31.60
2023-03-18T03:28:38.798Z,31.33
2023-03-18T03:31:06.878Z,33.13
2023-03-18T03:33:36.699Z,29.83
2023-03-18T03:36:04.054Z,31.63
2023-03-18T03:38:31.826Z,33.43
2023-03-18T03:40:58.780Z,32.47
2023-03-18T03:43:25.956Z,33.42
2023-03-18T03:45:53.029Z,30.38
2023-03-18T03:48:19.829Z,30.95
2023-03-18T03:50:47.740Z,31.88
2023-03-18T03:53:14.779Z,31.60
2023-03-18T03:55:41.808Z,30.23
2023-03-18T03:58:09.585Z,32.17
2023-03-18T04:00:38.290Z,31.27
2023-03-18T04:03:05.815Z,31.25
2023-03-18T04:05:33.197Z,29.50
2023-03-18T04:08:01.215Z,28.17
2023-03-18T04:10:36.724Z,26.25
2023-03-18T04:13:06.434Z,26.77
2023-03-18T04:15:34.309Z,28.00
2023-03-18T04:18:08.268Z,28.95
2023-03-18T04:20:37.973Z,29.35
2023-03-18T04:23:11.350Z,26.23
2023-03-18T04:25:38.346Z,27.65
2023-03-18T04:28:05.349Z,25.20
2023-03-18T04:30:51.743Z,25.33
2023-03-18T04:33:21.200Z,24.77
2023-03-18T04:35:49.053Z,24.27
2023-03-18T04:38:18.773Z,22.05
2023-03-18T04:40:48.202Z,22.73
2023-03-18T04:43:15.404Z,20.75
2023-03-18T04:45:43.752Z,22.95
2023-03-18T04:48:11.453Z,20.95
2023-03-18T04:50:41.136Z,20.70
2023-03-18T04:53:12.373Z,18.40
2023-03-18T04:55:40.161Z,18.60
2023-03-18T04:58:09.265Z,19.25
2023-03-18T05:00:41.184Z,19.08
2023-03-18T05:03:22.898Z,20.48
2023-03-18T05:05:50.639Z,17.75
2023-03-18T05:08:21.676Z,19.33
2023-03-18T05:10:50.623Z,17.97
2023-03-18T05:13:18.695Z,17.23
2023-03-18T05:15:46.215Z,15.85
2023-03-18T05:18:13.055Z,16.05
2023-03-18T05:20:41.826Z,16.70
2023-03-18T05:23:11.982Z,15.35
2023-03-18T05:25:49.662Z,15.30
2023-03-18T05:28:18.344Z,14.75
2023-03-18T05:30:53.791Z,14.90
2023-03-18T05:33:23.116Z,14.77
2023-03-18T05:35:55.856Z,15.63
2023-03-18T05:38:29.280Z,15.50
2023-03-18T05:40:56.650Z,15.15
2023-03-18T05:43:31.783Z,15.85
2023-03-18T05:45:59.558Z,16.45
2023-03-18T05:48:38.830Z,16.42
2023-03-18T05:51:06.925Z,15.23
2023-03-18T05:53:36.304Z,16.55
2023-03-18T05:56:18.329Z,18.20
2023-03-18T05:58:49.963Z,16.83
2023-03-18T06:01:27.379Z,18.63
2023-03-18T06:03:55.434Z,20.75
2023-03-18T06:06:22.383Z,26.27
2023-03-18T06:08:49.481Z,27.33
2023-03-18T06:11:17.102Z,30.98
2023-03-18T06:13:45.165Z,33.85
2023-03-18T06:16:12.756Z,35.85
2023-03-18T06:18:40.760Z,37.30
2023-03-18T06:21:10.045Z,39.03
2023-03-18T06:23:37.786Z,38.88
2023-03-18T06:26:05.304Z,38.78
2023-03-18T06:28:37.557Z,33.95
2023-03-18T06:31:10.829Z,34.63
2023-03-18T06:33:39.119Z,36.08
2023-03-18T06:36:08.910Z,34.70
2023-03-18T06:38:38.295Z,33.20
2023-03-18T06:41:05.418Z,32.83
2023-03-18T06:43:37.642Z,33.40
2023-03-18T06:46:05.421Z,32.85
2023-03-18T06:48:33.008Z,32.17
2023-03-18T06:51:00.377Z,30.77
2023-03-18T06:53:36.431Z,31.38
2023-03-18T06:56:06.164Z,28.98
2023-03-18T06:58:43.839Z,32.10
2023-03-18T07:01:12.631Z,29.88
2023-03-18T07:03:42.808Z,29.75
2023-03-18T07:06:12.059Z,28.55
2023-03-18T07:08:40.670Z,28.83
2023-03-18T07:11:08.144Z,26.92
2023-03-18T07:13:40.332Z,26.58
2023-03-18T07:16:13.816Z,26.02
2023-03-18T07:18:40.690Z,27.10
2023-03-18T07:21:07.616Z,27.13
2023-03-18T07:23:34.436Z,26.85
2023-03-18T07:26:01.835Z,32.78
2023-03-18T07:28:29.036Z,32.80
2023-03-18T07:30:56.586Z,35.17
2023-03-18T07:33:24.287Z,31.27
2023-03-18T07:35:51.570Z,32.47
2023-03-18T07:38:19.073Z,31.02
2023-03-18T07:40:46.454Z,29.17
2023-03-18T07:43:13.264Z,28.67
2023-03-18T07:45:41.220Z,31.80
2023-03-18T07:48:08.141Z,29.27
2023-03-18T07:50:35.156Z,29.08
2023-03-18T07:53:02.524Z,28.10
2023-03-18T07:55:30.364Z,28.70
2023-03-18T07:57:57.550Z,27.55
2023-03-18T08:00:25.751Z,27.33
2023-03-18T08:02:53.125Z,27.33
2023-03-18T08:05:20.006Z,28.75
2023-03-18T08:07:46.896Z,28.05
2023-03-18T08:10:15.124Z,26.77
2023-03-18T08:12:52.758Z,27.15
2023-03-18T08:15:22.463Z,24.83
2023-03-18T08:17:50.679Z,22.83
2023-03-18T08:20:18.171Z,23.53
2023-03-18T08:22:46.072Z,22.92
2023-03-18T08:25:14.490Z,22.40
2023-03-18T08:27:41.335Z,21.13
2023-03-18T08:30:10.156Z,22.02
2023-03-18T08:32:37.634Z,24.35
2023-03-18T08:35:05.317Z,22.60
2023-03-18T08:37:32.720Z,23.55
2023-03-18T08:40:00.386Z,23.05
2023-03-18T08:42:27.835Z,20.45
2023-03-18T08:44:55.096Z,21.88
2023-03-18T08:47:22.237Z,20.52
2023-03-18T08:49:52.383Z,19.65
2023-03-18T08:52:19.937Z,19.40
2023-03-18T08:54:47.918Z,19.48
2023-03-18T08:57:16.336Z,18.08
2023-03-18T08:59:43.225Z,16.40
2023-03-18T09:02:19.542Z,16.63
2023-03-18T09:04:48.241Z,17.35
2023-03-18T09:07:16.896Z,16.40
2023-03-18T09:09:46.568Z,17.42
2023-03-18T09:12:14.421Z,17.92
2023-03-18T09:14:42.693Z,15.70
2023-03-18T09:17:09.887Z,13.70
2023-03-18T09:19:37.527Z,11.77
2023-03-18T09:22:04.551Z,12.25
2023-03-18T09:24:31.761Z,11.73
2023-03-18T09:26:59.992Z,10.77
2023-03-18T09:29:27.768Z,9.77
2023-03-18T09:31:55.810Z,9.65
2023-03-18T09:34:23.118Z,10.63
2023-03-18T09:36:51.684Z,10.18
2023-03-18T09:39:22.271Z,8.40
2023-03-18T09:42:37.782Z,7.70
2023-03-18T09:45:16.605Z,8.07
2023-03-18T09:48:44.609Z,7.90
2023-03-18T09:51:41.896Z,7.25
2023-03-18T09:54:31.061Z,7.85
2023-03-18T09:56:58.528Z,6.57
2023-03-18T09:59:36.003Z,6.20
2023-03-18T10:02:06.548Z,7.72
2023-03-18T10:04:37.077Z,6.03
2023-03-18T10:07:13.244Z,6.28
2023-03-18T10:09:47.261Z,6.38
2023-03-18T10:12:24.071Z,5.97
2023-03-18T10:15:07.248Z,5.85
2023-03-18T10:18:24.150Z,5.65
2023-03-18T10:21:11.176Z,6.03
2023-03-18T10:23:49.788Z,5.90
2023-03-18T10:26:27.755Z,5.80
2023-03-18T10:29:03.965Z,6.10
2023-03-18T10:31:43.223Z,5.05
2023-03-18T10:34:14.752Z,5.47
2023-03-18T10:36:58.369Z,5.55
2023-03-18T10:39:30.639Z,4.40
2023-03-18T10:42:07.656Z,4.20
2023-03-18T10:44:39.981Z,4.70
2023-03-18T10:47:19.139Z,4.53
2023-03-18T10:49:57.554Z,5.20
2023-03-18T10:52:37.148Z,4.75
2023-03-18T10:55:16.240Z,5.63
2023-03-18T10:57:43.460Z,5.03
2023-03-18T11:00:34.543Z,4.50
2023-03-18T11:03:02.701Z,4.53
2023-03-18T11:05:37.879Z,4.50
2023-03-18T11:08:28.931Z,4.78
2023-03-18T11:10:55.892Z,4.65
2023-03-18T11:13:23.545Z,3.95
2023-03-18T11:15:52.490Z,4.00
2023-03-18T11:18:25.550Z,4.53
2023-03-18T11:21:03.418Z,4.13
2023-03-18T11:24:07.497Z,4.10
2023-03-18T11:27:18.470Z,3.58
2023-03-18T11:29:55.780Z,3.92
2023-03-18T11:32:34.198Z,3.90
2023-03-18T11:35:03.502Z,3.72
2023-03-18T11:37:40.138Z,3.97
2023-03-18T11:40:19.198Z,3.63
2023-03-18T11:42:48.990Z,4.05
2023-03-18T11:45:37.754Z,3.70
2023-03-18T11:48:09.869Z,4.07
2023-03-18T11:50:53.841Z,4.03
2023-03-18T11:53:35.243Z,3.58
2023-03-18T11:56:31.710Z,3.67
2023-03-18T11:59:25.063Z,3.83
2023-03-18T12:02:07.890Z,4.00
2023-03-18T12:04:53.815Z,4.07
2023-03-18T12:07:38.079Z,4.00
2023-03-18T12:10:24.515Z,3.80
2023-03-18T12:12:52.207Z,4.00
2023-03-18T12:15:34.789Z,3.67
2023-03-18T12:18:10.742Z,4.40
2023-03-18T12:20:50.657Z,4.18
2023-03-18T12:23:40.164Z,3.67
2023-03-18T12:26:25.364Z,3.92
2023-03-18T12:29:51.266Z,4.50
2023-03-18T12:32:18.143Z,4.47
2023-03-18T12:35:06.605Z,4.10
2023-03-18T12:37:47.874Z,4.65
2023-03-18T12:41:01.452Z,3.60
2023-03-18T12:43:40.509Z,4.05
2023-03-18T12:46:31.852Z,3.83
2023-03-18T12:49:25.386Z,3.63
2023-03-18T12:52:08.326Z,3.58
2023-03-18T12:55:07.667Z,3.97
2023-03-18T13:00:52.386Z,3.72
2023-03-18T13:03:38.826Z,3.53
2023-03-18T13:06:15.757Z,3.55
2023-03-18T13:08:55.226Z,3.67
2023-03-18T13:14:14.884Z,3.95
2023-03-18T13:16:42.546Z,4.07
2023-03-18T13:19:11.915Z,3.75
2023-03-18T13:21:55.450Z,3.40
2023-03-18T13:24:44.781Z,3.75
2023-03-18T13:27:37.969Z,3.58
2023-03-18T13:30:11.033Z,3.45
2023-03-18T13:32:57.005Z,3.35
2023-03-18T13:35:39.402Z,3.47
2023-03-18T13:38:11.999Z,4.05
2023-03-18T13:40:45.301Z,3.42
2023-03-18T13:43:16.520Z,3.25
2023-03-18T13:45:46.792Z,3.20
2023-03-18T13:48:18.466Z,3.25
2023-03-18T13:50:48.697Z,3.20
2023-03-18T13:53:25.474Z,3.50
2023-03-18T13:55:59.647Z,3.13
2023-03-18T13:58:36.256Z,3.20
2023-03-18T14:01:16.132Z,3.50
2023-03-18T14:03:46.613Z,2.88
2023-03-18T14:06:16.664Z,3.30
2023-03-18T14:08:44.055Z,3.88
2023-03-18T14:11:17.070Z,3.58
2023-03-18T14:13:47.608Z,3.75
2023-03-18T14:16:30.943Z,3.25
2023-03-18T14:19:06.752Z,3.08
2023-03-18T14:21:34.307Z,3.20
2023-03-18T14:24:20.994Z,3.20
2023-03-18T14:27:08.726Z,3.03
2023-03-18T14:29:45.666Z,3.15
2023-03-18T14:32:34.299Z,3.50
2023-03-18T14:35:28.329Z,3.67
2023-03-18T14:38:26.062Z,2.97
2023-03-18T14:40:56.047Z,3.08
2023-03-18T14:43:34.509Z,3.63
2023-03-18T14:46:06.132Z,3.03
2023-03-18T14:48:34.507Z,3.20
2023-03-18T14:51:05.188Z,3.75
2023-03-18T14:53:37.800Z,3.58
2023-03-18T14:56:05.703Z,3.45
2023-03-18T14:58:34.451Z,3.45
2023-03-18T15:01:09.988Z,3.30
2023-03-18T15:03:42.534Z,3.83
2023-03-18T15:06:20.593Z,3.65
2023-03-18T15:08:56.785Z,3.35
2023-03-18T15:11:24.262Z,3.08
2023-03-18T15:13:56.860Z,3.45
2023-03-18T15:16:25.380Z,3.25
2023-03-18T15:18:55.038Z,3.95
2023-03-18T15:21:30.792Z,3.53
2023-03-18T15:24:03.534Z,3.50
2023-03-18T15:26:35.227Z,3.10
2023-03-18T15:29:24.217Z,3.58
2023-03-18T15:31:52.947Z,3.13
2023-03-18T15:34:30.873Z,3.55
2023-03-18T15:37:03.517Z,3.38
2023-03-18T15:39:40.939Z,3.70
2023-03-18T15:42:17.309Z,6.85
2023-03-18T15:44:46.576Z,4.72
2023-03-18T15:47:17.230Z,4.40
2023-03-18T15:49:53.321Z,3.63
2023-03-18T15:52:31.594Z,3.53
2023-03-18T15:54:58.810Z,3.30
2023-03-18T15:57:35.411Z,3.28
2023-03-18T16:00:09.940Z,3.65
2023-03-18T16:02:40.636Z,3.38
2023-03-18T16:05:18.280Z,3.42
2023-03-18T16:07:46.850Z,3.38
2023-03-18T16:10:22.749Z,3.40
2023-03-18T16:12:55.284Z,3.63
2023-03-18T16:15:25.085Z,4.53
2023-03-18T16:17:54.121Z,3.47
2023-03-18T16:20:24.245Z,3.50
2023-03-18T16:22:52.058Z,3.50
2023-03-18T16:25:19.489Z,6.38
2023-03-18T16:27:48.918Z,9.48
2023-03-18T16:30:20.231Z,6.55
2023-03-18T16:32:47.865Z,5.45
2023-03-18T16:35:16.487Z,6.13
2023-03-18T16:37:48.887Z,5.97
2023-03-18T16:40:24.963Z,5.03
2023-03-18T16:42:53.238Z,5.00
2023-03-18T16:45:25.549Z,4.75
2023-03-18T16:47:57.550Z,4.70
2023-03-18T16:50:30.803Z,4.18
2023-03-18T16:52:58.875Z,4.65
2023-03-18T16:55:26.885Z,6.00
2023-03-18T16:58:02.542Z,5.72
2023-03-18T17:00:32.230Z,5.45
2023-03-18T17:03:00.537Z,5.47
2023-03-18T17:05:28.545Z,4.53
2023-03-18T17:07:55.939Z,5.10
2023-03-18T17:10:26.226Z,4.78
2023-03-18T17:12:57.701Z,6.50
2023-03-18T17:15:29.610Z,5.40
2023-03-18T17:17:59.772Z,5.63
2023-03-18T17:20:30.508Z,5.78
2023-03-18T17:22:58.339Z,5.22
2023-03-18T17:25:28.152Z,6.25
2023-03-18T17:28:01.389Z,5.43
2023-03-18T17:30:40.061Z,6.15
2023-03-18T17:33:22.354Z,5.78
2023-03-18T17:35:49.422Z,6.28
2023-03-18T17:38:16.584Z,6.13
2023-03-18T17:40:44.444Z,6.95
2023-03-18T17:43:19.568Z,7.70
2023-03-18T17:45:47.809Z,6.30
2023-03-18T17:48:22.063Z,6.60
2023-03-18T17:50:51.669Z,7.30
2023-03-18T17:55:58.063Z,8.17
2023-03-18T17:58:31.402Z,8.00
2023-03-18T18:01:20.398Z,8.30
2023-03-18T18:03:48.000Z,8.95
2023-03-18T18:06:23.720Z,6.50
2023-03-18T18:08:50.901Z,7.30
2023-03-18T18:11:23.941Z,7.85
2023-03-18T18:13:53.677Z,9.18
2023-03-18T18:16:21.625Z,8.85
2023-03-18T18:18:50.017Z,9.50
2023-03-18T18:21:20.527Z,9.45
2023-03-18T18:23:48.772Z,8.63
2023-03-18T18:26:20.434Z,10.40
2023-03-18T18:28:49.937Z,10.48
2023-03-18T18:33:46.049Z,10.00
2023-03-18T18:36:14.297Z,9.70
2023-03-18T18:38:41.576Z,8.90
2023-03-18T18:41:09.702Z,8.50
2023-03-18T18:43:36.850Z,9.52
2023-03-18T18:46:04.299Z,9.70
2023-03-18T18:48:39.193Z,10.38
2023-03-18T18:51:06.360Z,10.07
2023-03-18T18:53:38.099Z,9.57
2023-03-18T18:56:20.903Z,10.48
2023-03-18T18:58:48.841Z,10.85
2023-03-18T19:01:16.099Z,10.43
2023-03-18T19:03:43.703Z,10.38
2023-03-18T19:06:27.262Z,10.73
2023-03-18T19:08:57.032Z,9.10
2023-03-18T19:11:25.921Z,9.25
2023-03-18T19:14:14.762Z,9.43
2023-03-18T19:16:42.549Z,10.20
2023-03-18T19:19:13.728Z,10.88
2023-03-18T19:21:41.231Z,10.75
2023-03-18T19:24:28.080Z,12.00
2023-03-18T19:27:04.279Z,11.95
2023-03-18T19:29:32.757Z,11.25
2023-03-18T19:32:01.470Z,12.05
2023-03-18T19:34:32.076Z,11.35
2023-03-18T19:37:02.704Z,12.50
2023-03-18T19:39:30.203Z,12.57
2023-03-18T19:41:57.310Z,13.38
2023-03-18T19:44:26.520Z,13.15
2023-03-18T19:46:56.409Z,15.43
2023-03-18T19:49:26.480Z,15.07
2023-03-18T19:51:54.152Z,15.68
2023-03-18T19:54:28.304Z,13.07
2023-03-18T19:56:57.228Z,11.70
2023-03-18T19:59:33.584Z,12.52
2023-03-18T20:02:05.140Z,11.85
2023-03-18T20:04:32.090Z,10.75
2023-03-18T20:06:59.006Z,10.68
2023-03-18T20:09:26.180Z,11.88
2023-03-18T20:12:04.402Z,11.60
2023-03-18T20:14:38.297Z,12.80
2023-03-18T20:17:45.059Z,13.75
2023-03-18T20:20:24.112Z,13.82
2023-03-18T20:22:54.088Z,13.65
2023-03-18T20:25:30.642Z,12.38
2023-03-18T20:27:58.365Z,13.25
2023-03-18T20:30:27.829Z,11.38
2023-03-18T20:32:55.584Z,10.50
2023-03-18T20:35:27.126Z,10.52
2023-03-18T20:37:59.249Z,9.50
2023-03-18T20:40:28.787Z,9.70
2023-03-18T20:45:24.683Z,9.68
2023-03-18T20:47:51.758Z,10.20
2023-03-18T20:50:29.898Z,10.73
2023-03-18T20:52:58.712Z,9.57
2023-03-18T20:55:27.122Z,9.45
2023-03-18T20:57:54.570Z,10.13
2023-03-18T21:00:27.388Z,9.55
2023-03-18T21:02:57.575Z,9.30
2023-03-18T21:05:26.288Z,9.20
2023-03-18T21:07:53.643Z,9.93
2023-03-18T21:10:24.009Z,10.35
2023-03-18T21:12:51.708Z,11.30
2023-03-18T21:15:20.590Z,19.80
2023-03-18T21:17:47.896Z,17.27
2023-03-18T21:20:22.960Z,22.33
2023-03-18T21:22:51.397Z,19.58
2023-03-18T21:25:24.623Z,20.80
2023-03-18T21:27:52.603Z,21.48
2023-03-18T21:30:22.132Z,16.73
2023-03-18T21:35:21.803Z,15.52
2023-03-18T21:37:49.364Z,14.75
2023-03-18T21:40:19.305Z,14.07
2023-03-18T21:42:46.854Z,14.13
2023-03-18T21:45:16.840Z,12.77
2023-03-18T21:47:43.849Z,11.15
2023-03-18T21:50:26.146Z,13.43
2023-03-18T21:52:54.303Z,11.73
2023-03-18T21:55:22.059Z,14.05
2023-03-18T21:57:49.508Z,14.07
2023-03-18T22:00:20.230Z,14.23
2023-03-18T22:02:47.850Z,14.45
2023-03-18T22:05:21.927Z,14.57
2023-03-18T22:07:50.870Z,14.35
2023-03-18T22:10:23.318Z,16.10
2023-03-18T22:12:50.678Z,18.83
2023-03-18T22:15:36.495Z,17.20
2023-03-18T22:18:04.513Z,19.70
2023-03-18T22:20:32.869Z,19.92
2023-03-18T22:22:59.885Z,20.85
2023-03-18T22:25:33.722Z,21.85
2023-03-18T22:28:01.108Z,21.83
2023-03-18T22:30:30.842Z,22.85
2023-03-18T22:32:59.950Z,22.48
2023-03-18T22:35:29.296Z,23.10
2023-03-18T22:37:56.889Z,23.23
2023-03-18T22:40:26.329Z,22.92
2023-03-18T22:42:57.265Z,21.65
2023-03-18T22:45:33.165Z,22.23
2023-03-18T22:48:04.338Z,23.90
2023-03-18T22:50:33.893Z,23.10
2023-03-18T22:53:19.230Z,21.60
2023-03-18T22:55:47.012Z,22.55
2023-03-18T22:58:20.430Z,23.30
2023-03-18T23:00:48.288Z,22.33
2023-03-18T23:03:18.478Z,20.65
2023-03-18T23:05:47.058Z,20.42
2023-03-18T23:08:14.525Z,20.75
2023-03-18T23:10:42.808Z,21.05
2023-03-18T23:13:28.805Z,21.23
2023-03-18T23:15:56.939Z,19.63
2023-03-18T23:18:24.209Z,18.83
2023-03-18T23:20:52.363Z,20.40
2023-03-18T23:23:21.664Z,20.70
2023-03-18T23:28:17.292Z,18.23
2023-03-18T23:30:48.259Z,19.55
2023-03-18T23:33:15.920Z,19.63
2023-03-18T23:35:44.186Z,20.33
2023-03-18T23:38:11.607Z,17.87
2023-03-18T23:40:38.722Z,17.23
2023-03-18T23:43:08.986Z,19.02
2023-03-18T23:45:39.744Z,17.63
2023-03-18T23:48:07.338Z,17.85
2023-03-18T23:50:34.470Z,17.33
2023-03-18T23:53:01.881Z,16.38
2023-03-18T23:55:34.594Z,17.35
2023-03-18T23:58:03.186Z,17.45
